createdAt,value
2022-10-11T00:02:15.476Z,15.65
2022-10-11T00:04:42.242Z,10.32
2022-10-11T00:07:11.488Z,10.45
2022-10-11T00:09:40.172Z,9.63
2022-10-11T00:12:06.975Z,14.57
2022-10-11T00:14:34.092Z,11.68
2022-10-11T00:17:00.963Z,10.68
2022-10-11T00:19:27.681Z,11.20
2022-10-11T00:21:54.617Z,17.80
2022-10-11T00:24:21.444Z,14.18
2022-10-11T00:26:48.185Z,13.55
2022-10-11T00:29:14.953Z,11.02
2022-10-11T00:31:41.734Z,12.45
2022-10-11T00:34:08.746Z,12.95
2022-10-11T00:36:35.508Z,13.52
2022-10-11T00:39:02.525Z,15.63
2022-10-11T00:41:29.373Z,8.75
2022-10-11T00:44:19.573Z,11.63
2022-10-11T00:47:01.626Z,11.00
2022-10-11T00:49:38.823Z,10.75
2022-10-11T00:52:17.087Z,10.38
2022-10-11T00:54:48.124Z,14.60
2022-10-11T00:57:22.380Z,12.57
2022-10-11T00:59:52.782Z,15.60
2022-10-11T01:02:20.398Z,11.52
2022-10-11T01:05:01.038Z,9.10
2022-10-11T01:07:37.462Z,8.98
2022-10-11T01:10:04.761Z,10.15
2022-10-11T01:12:32.127Z,14.20
2022-10-11T01:15:21.020Z,11.43
2022-10-11T01:18:10.227Z,15.57
2022-10-11T01:21:20.052Z,10.23
2022-10-11T01:24:21.426Z,10.65
2022-10-11T01:27:03.380Z,9.18
2022-10-11T01:29:42.071Z,13.68
2022-10-11T01:32:19.063Z,8.95
2022-10-11T01:34:56.002Z,12.60
2022-10-11T01:37:40.673Z,12.05
2022-10-11T01:40:10.038Z,13.77
2022-10-11T01:42:39.275Z,13.35
2022-10-11T01:45:09.463Z,14.60
2022-10-11T01:47:36.259Z,8.82
2022-10-11T01:50:03.466Z,11.15
2022-10-11T01:52:33.936Z,11.73
2022-10-11T01:55:09.611Z,8.20
2022-10-11T01:58:16.161Z,11.00
2022-10-11T02:01:20.167Z,11.23
2022-10-11T02:03:55.193Z,9.23
2022-10-11T02:06:57.552Z,9.73
2022-10-11T02:09:31.737Z,9.90
2022-10-11T02:12:10.621Z,13.20
2022-10-11T02:14:47.025Z,8.88
2022-10-11T02:17:20.183Z,6.35
2022-10-11T02:19:53.445Z,13.88
2022-10-11T02:22:26.270Z,10.30
2022-10-11T02:24:57.810Z,8.80
2022-10-11T02:27:28.312Z,15.85
2022-10-11T02:29:56.789Z,12.98
2022-10-11T02:32:25.540Z,9.40
2022-10-11T02:35:00.128Z,11.27
2022-10-11T02:37:43.379Z,11.27
2022-10-11T02:40:10.342Z,10.85
2022-10-11T02:42:43.912Z,9.07
2022-10-11T02:45:29.755Z,11.23
2022-10-11T02:47:57.594Z,8.57
2022-10-11T02:50:24.461Z,8.88
2022-10-11T02:52:51.326Z,6.88
2022-10-11T02:55:18.145Z,11.55
2022-10-11T02:57:44.905Z,12.60
2022-10-11T03:00:12.401Z,10.18
2022-10-11T03:02:39.201Z,11.02
2022-10-11T03:05:06.317Z,7.82
2022-10-11T03:07:33.026Z,9.23
2022-10-11T03:09:59.765Z,11.52
2022-10-11T03:12:26.513Z,9.10
2022-10-11T03:14:53.194Z,8.27
2022-10-11T03:17:35.997Z,9.73
2022-10-11T03:20:03.908Z,7.22
2022-10-11T03:22:30.614Z,7.38
2022-10-11T03:25:01.119Z,6.32
2022-10-11T03:27:30.784Z,13.82
2022-10-11T03:30:00.402Z,13.40
2022-10-11T03:32:27.933Z,10.23
2022-10-11T03:34:54.756Z,10.10
2022-10-11T03:37:21.551Z,10.40
2022-10-11T03:39:48.794Z,8.05
2022-10-11T03:42:15.520Z,11.75
2022-10-11T03:44:42.364Z,7.22
2022-10-11T03:47:09.461Z,12.05
2022-10-11T03:49:41.223Z,11.07
2022-10-11T03:52:09.839Z,8.15
2022-10-11T03:54:36.659Z,8.52
2022-10-11T03:57:03.579Z,8.45
2022-10-11T03:59:30.388Z,6.70
2022-10-11T04:01:57.188Z,11.10
2022-10-11T04:04:24.051Z,12.50
2022-10-11T04:06:50.865Z,11.60
2022-10-11T04:09:17.769Z,10.80
2022-10-11T04:11:44.467Z,10.18
2022-10-11T04:14:13.436Z,9.57
2022-10-11T04:16:41.221Z,13.05
2022-10-11T04:19:12.641Z,9.30
2022-10-11T04:21:41.935Z,13.98
2022-10-11T04:24:13.740Z,9.85
2022-10-11T04:26:40.425Z,12.95
2022-10-11T04:29:07.177Z,11.55
2022-10-11T04:31:34.026Z,11.02
2022-10-11T04:34:01.074Z,16.70
2022-10-11T04:36:27.890Z,8.68
2022-10-11T04:38:56.166Z,12.35
2022-10-11T04:41:22.935Z,9.38
2022-10-11T04:43:52.550Z,9.48
2022-10-11T04:46:19.262Z,10.80
2022-10-11T04:48:45.938Z,15.85
2022-10-11T04:51:12.592Z,12.30
2022-10-11T04:53:39.372Z,11.40
2022-10-11T04:56:11.084Z,10.13
2022-10-11T04:58:41.561Z,13.15
2022-10-11T05:01:09.401Z,9.25
2022-10-11T05:03:36.401Z,10.90
2022-10-11T05:06:07.111Z,11.02
2022-10-11T05:08:34.387Z,9.52
2022-10-11T05:11:06.764Z,10.88
2022-10-11T05:13:35.165Z,13.20
2022-10-11T05:16:04.016Z,13.15
2022-10-11T05:18:34.216Z,12.48
2022-10-11T05:21:08.980Z,14.32
2022-10-11T05:23:37.127Z,11.27
2022-10-11T05:26:04.609Z,14.40
2022-10-11T05:28:32.091Z,11.43
2022-10-11T05:30:58.989Z,16.92
2022-10-11T05:33:26.112Z,18.55
2022-10-11T05:35:53.229Z,18.80
2022-10-11T05:38:20.145Z,23.45
2022-10-11T05:40:49.290Z,23.45
2022-10-11T05:43:16.230Z,24.45
2022-10-11T05:45:44.622Z,26.35
2022-10-11T05:48:12.287Z,25.23
2022-10-11T05:50:39.670Z,34.25
2022-10-11T05:53:06.932Z,24.40
2022-10-11T05:55:41.470Z,27.55
2022-10-11T05:58:12.348Z,31.58
2022-10-11T06:00:39.101Z,35.85
2022-10-11T06:03:07.932Z,36.75
2022-10-11T06:05:35.610Z,41.90
2022-10-11T06:08:03.558Z,35.83
2022-10-11T06:10:30.345Z,45.85
2022-10-11T06:12:57.225Z,47.55
2022-10-11T06:15:24.179Z,48.58
2022-10-11T06:17:51.368Z,46.80
2022-10-11T06:20:18.271Z,42.33
2022-10-11T06:22:44.983Z,52.00
2022-10-11T06:25:11.789Z,46.65
2022-10-11T06:27:38.539Z,52.63
2022-10-11T06:30:05.814Z,49.53
2022-10-11T06:32:42.347Z,53.13
2022-10-11T06:35:09.539Z,48.55
2022-10-11T06:37:36.377Z,53.08
2022-10-11T06:40:03.318Z,48.50
2022-10-11T06:42:30.078Z,50.00
2022-10-11T06:44:56.844Z,48.60
2022-10-11T06:47:23.614Z,46.50
2022-10-11T06:49:50.309Z,57.83
2022-10-11T06:52:17.024Z,56.20
2022-10-11T06:54:44.993Z,51.17
2022-10-11T06:57:12.052Z,49.80
2022-10-11T06:59:38.754Z,53.42
2022-10-11T07:02:08.748Z,52.38
2022-10-11T07:04:35.559Z,59.03
2022-10-11T07:07:02.232Z,52.78
2022-10-11T07:09:28.905Z,52.50
2022-10-11T07:11:55.706Z,62.10
2022-10-11T07:14:22.591Z,51.13
2022-10-11T07:16:49.312Z,58.15
2022-10-11T07:19:16.109Z,56.60
2022-10-11T07:21:42.807Z,52.95
2022-10-11T07:24:09.667Z,61.42
2022-10-11T07:26:38.476Z,55.42
2022-10-11T07:29:08.192Z,58.38
2022-10-11T07:31:37.426Z,58.28
2022-10-11T07:34:04.272Z,56.50
2022-10-11T07:36:31.021Z,51.60
2022-10-11T07:38:57.851Z,55.97
2022-10-11T07:41:24.530Z,63.17
2022-10-11T07:43:54.039Z,78.03
2022-10-11T07:46:20.857Z,60.75
2022-10-11T07:48:50.066Z,68.60
2022-10-11T07:51:19.741Z,52.00
2022-10-11T07:53:52.360Z,52.63
2022-10-11T07:56:21.803Z,48.58
2022-10-11T07:58:54.419Z,45.63
2022-10-11T08:01:21.752Z,49.45
2022-10-11T08:03:50.427Z,50.35
2022-10-11T08:06:20.190Z,55.72
2022-10-11T08:08:47.315Z,48.10
2022-10-11T08:11:22.851Z,45.33
2022-10-11T08:13:50.098Z,43.65
2022-10-11T08:16:17.262Z,47.65
2022-10-11T08:18:44.399Z,47.72
2022-10-11T08:21:18.742Z,46.90
2022-10-11T08:23:58.362Z,51.55
2022-10-11T08:26:38.373Z,46.80
2022-10-11T08:29:24.582Z,45.83
2022-10-11T08:32:23.424Z,48.40
2022-10-11T08:34:53.336Z,52.10
2022-10-11T08:37:47.439Z,57.72
2022-10-11T09:11:37.619Z,60.70
2022-10-11T09:14:49.096Z,63.45
2022-10-11T09:24:53.264Z,65.80
2022-10-11T09:28:27.643Z,61.38
2022-10-11T09:34:25.741Z,66.75
2022-10-11T09:41:05.524Z,68.68
2022-10-11T09:43:32.315Z,72.03
2022-10-11T09:46:02.593Z,67.22
2022-10-11T09:49:40.632Z,60.35
2022-10-11T10:33:30.880Z,61.53
2022-10-11T10:36:14.238Z,62.17
2022-10-11T10:38:54.533Z,57.47
2022-10-11T10:41:21.275Z,56.78
2022-10-11T10:43:57.174Z,52.50
2022-10-11T10:46:26.459Z,52.80
2022-10-11T10:49:51.914Z,52.88
2022-10-11T10:52:45.077Z,56.73
2022-10-11T10:55:25.285Z,56.63
2022-10-11T10:58:06.384Z,54.42
2022-10-11T11:00:49.389Z,48.45
2022-10-11T11:03:48.512Z,54.35
2022-10-11T11:06:48.852Z,51.58
2022-10-11T11:09:38.716Z,40.25
2022-10-11T11:12:23.424Z,46.50
2022-10-11T11:14:55.911Z,38.38
2022-10-11T11:17:36.442Z,43.95
2022-10-11T11:20:31.628Z,35.65
2022-10-11T11:23:27.231Z,34.08
2022-10-11T11:26:15.339Z,34.75
2022-10-11T11:29:12.974Z,28.67
2022-10-11T11:31:57.669Z,29.65
2022-10-11T11:34:31.148Z,26.75
2022-10-11T11:37:06.582Z,29.40
2022-10-11T11:39:45.736Z,23.63
2022-10-11T11:42:15.408Z,25.02
2022-10-11T11:44:46.915Z,21.85
2022-10-11T11:47:23.941Z,23.73
2022-10-11T11:50:23.016Z,19.75
2022-10-11T11:52:59.301Z,23.23
2022-10-11T11:55:25.922Z,22.00
2022-10-11T11:57:55.535Z,18.63
2022-10-11T12:00:26.606Z,21.50
2022-10-11T12:03:09.574Z,19.23
2022-10-11T12:05:36.817Z,18.20
2022-10-11T12:08:07.132Z,18.50
2022-10-11T12:11:03.851Z,21.27
2022-10-11T12:13:39.797Z,19.65
2022-10-11T12:16:06.509Z,19.35
2022-10-11T12:18:41.923Z,22.65
2022-10-11T12:21:35.242Z,22.48
2022-10-11T12:24:24.552Z,23.15
2022-10-11T12:26:55.832Z,16.75
2022-10-11T12:29:31.538Z,19.20
2022-10-11T12:32:00.946Z,20.70
2022-10-11T12:34:43.113Z,15.38
2022-10-11T12:37:19.496Z,14.43
2022-10-11T12:39:55.758Z,19.33
2022-10-11T12:42:32.322Z,18.50
2022-10-11T12:45:13.918Z,15.68
2022-10-11T12:47:52.027Z,14.93
2022-10-11T12:50:37.056Z,13.90
2022-10-11T12:53:31.333Z,13.30
2022-10-11T12:56:09.126Z,12.15
2022-10-11T12:58:41.266Z,17.30
2022-10-11T13:01:09.999Z,13.13
2022-10-11T13:03:40.039Z,11.32
2022-10-11T13:06:25.030Z,11.40
2022-10-11T13:09:11.310Z,9.82
2022-10-11T13:11:49.455Z,9.70
2022-10-11T13:14:22.123Z,11.05
2022-10-11T13:17:04.808Z,11.15
2022-10-11T13:19:37.185Z,11.30
2022-10-11T13:22:17.505Z,10.90
2022-10-11T13:24:46.829Z,13.38
2022-10-11T13:27:23.692Z,10.45
2022-10-11T13:29:55.514Z,11.20
2022-10-11T13:32:28.263Z,10.02
2022-10-11T13:35:03.450Z,9.32
2022-10-11T13:39:58.826Z,9.27
2022-10-11T13:42:34.347Z,10.57
2022-10-11T13:45:01.508Z,10.75
2022-10-11T13:47:30.749Z,10.88
2022-10-11T13:50:11.380Z,8.52
2022-10-11T13:53:00.787Z,9.57
2022-10-11T13:55:38.683Z,11.00
2022-10-11T13:58:18.975Z,11.70
2022-10-11T14:01:27.988Z,9.90
2022-10-11T14:04:05.157Z,7.00
2022-10-11T14:06:46.757Z,10.48
2022-10-11T14:09:22.663Z,12.00
2022-10-11T14:11:52.250Z,14.18
2022-10-11T14:14:47.915Z,12.50
2022-10-11T14:17:31.921Z,9.60
2022-10-11T14:20:21.540Z,8.80
2022-10-11T14:22:52.004Z,11.07
2022-10-11T14:25:22.041Z,8.23
2022-10-11T14:27:51.879Z,12.05
2022-10-11T14:30:26.515Z,8.88
2022-10-11T14:35:30.789Z,11.75
2022-10-11T14:37:57.627Z,9.43
2022-10-11T14:40:31.008Z,10.55
2022-10-11T14:42:57.877Z,12.52
2022-10-11T14:45:27.220Z,8.13
2022-10-11T14:47:56.992Z,11.60
2022-10-11T14:50:42.575Z,9.52
2022-10-11T14:53:13.254Z,9.60
2022-10-11T14:55:41.493Z,8.60
2022-10-11T14:58:09.818Z,11.90
2022-10-11T15:00:37.367Z,8.90
2022-10-11T15:03:07.016Z,10.85
2022-10-11T15:05:34.490Z,13.68
2022-10-11T15:08:02.543Z,10.13
2022-10-11T15:10:35.933Z,9.27
2022-10-11T15:13:06.923Z,9.27
2022-10-11T15:15:40.651Z,9.93
2022-10-11T15:18:13.525Z,8.25
2022-10-11T15:20:45.166Z,7.80
2022-10-11T15:23:14.277Z,10.75
2022-10-11T15:25:43.868Z,8.25
2022-10-11T15:28:34.120Z,5.70
2022-10-11T15:31:01.057Z,9.45
2022-10-11T15:33:27.854Z,9.90
2022-10-11T15:35:56.814Z,6.10
2022-10-11T15:38:25.357Z,8.27
2022-10-11T15:40:53.104Z,8.55
2022-10-11T15:43:24.510Z,9.15
2022-10-11T15:45:51.877Z,9.68
2022-10-11T15:48:20.778Z,9.95
2022-10-11T15:50:49.274Z,8.63
2022-10-11T15:53:26.268Z,9.23
2022-10-11T15:55:57.195Z,11.15
2022-10-11T15:58:30.573Z,8.40
2022-10-11T16:01:05.261Z,9.65
2022-10-11T16:03:35.850Z,9.02
2022-10-11T16:06:06.017Z,7.05
2022-10-11T16:08:34.113Z,11.13
2022-10-11T16:11:00.964Z,12.27
2022-10-11T16:13:27.992Z,12.68
2022-10-11T16:15:59.770Z,14.30
2022-10-11T16:18:35.280Z,11.32
2022-10-11T16:21:07.680Z,12.73
2022-10-11T16:23:34.935Z,12.75
2022-10-11T16:26:05.953Z,13.32
2022-10-11T16:28:33.375Z,13.13
2022-10-11T16:31:00.658Z,11.10
2022-10-11T16:33:27.646Z,15.75
2022-10-11T16:36:14.354Z,15.27
2022-10-11T16:38:41.128Z,15.63
2022-10-11T16:41:10.271Z,11.57
2022-10-11T16:43:37.045Z,17.80
2022-10-11T16:46:04.040Z,13.63
2022-10-11T16:48:31.242Z,11.95
2022-10-11T16:51:07.684Z,12.52
2022-10-11T16:53:35.318Z,12.48
2022-10-11T16:56:07.426Z,14.65
2022-10-11T16:58:34.908Z,9.82
2022-10-11T17:01:02.045Z,10.63
2022-10-11T17:03:29.915Z,14.55
2022-10-11T17:05:59.679Z,15.90
2022-10-11T17:08:26.704Z,18.48
2022-10-11T17:10:57.808Z,16.63
2022-10-11T17:13:26.761Z,17.10
2022-10-11T17:15:53.467Z,16.08
2022-10-11T17:18:22.105Z,17.48
2022-10-11T17:20:48.945Z,19.52
2022-10-11T17:23:15.930Z,14.68
2022-10-11T17:25:49.742Z,13.00
2022-10-11T17:28:21.603Z,18.10
2022-10-11T17:30:59.255Z,14.63
2022-10-11T17:33:27.093Z,15.88
2022-10-11T17:35:57.867Z,20.23
2022-10-11T17:38:32.050Z,19.10
2022-10-11T17:41:11.225Z,16.83
2022-10-11T17:43:38.537Z,16.17
2022-10-11T17:46:06.643Z,14.52
2022-10-11T17:48:39.068Z,13.50
2022-10-11T17:51:19.260Z,17.40
2022-10-11T17:53:48.217Z,15.00
2022-10-11T17:56:17.307Z,25.23
2022-10-11T17:58:49.409Z,24.08
2022-10-11T18:01:20.334Z,18.70
2022-10-11T18:03:56.501Z,21.13
2022-10-11T18:06:24.362Z,20.95
2022-10-11T18:08:51.137Z,26.05
2022-10-11T18:11:19.369Z,19.08
2022-10-11T18:13:51.140Z,24.27
2022-10-11T18:16:22.765Z,23.48
2022-10-11T18:18:50.242Z,24.83
2022-10-11T18:21:19.698Z,19.67
2022-10-11T18:23:49.169Z,17.35
2022-10-11T18:26:29.401Z,22.92
2022-10-11T18:28:58.458Z,19.45
2022-10-11T18:31:28.496Z,18.02
2022-10-11T18:33:55.673Z,24.17
2022-10-11T18:36:25.695Z,21.52
2022-10-11T18:38:58.954Z,20.95
2022-10-11T18:41:31.720Z,23.00
2022-10-11T18:44:01.010Z,23.67
2022-10-11T18:46:30.670Z,30.42
2022-10-11T18:48:58.845Z,27.95
2022-10-11T18:51:31.158Z,20.80
2022-10-11T18:54:00.778Z,20.27
2022-10-11T18:56:28.660Z,25.17
2022-10-11T18:58:56.673Z,20.38
2022-10-11T19:01:34.640Z,22.60
2022-10-11T19:04:06.300Z,20.52
2022-10-11T19:06:39.719Z,17.35
2022-10-11T19:09:10.282Z,21.05
2022-10-11T19:11:39.836Z,16.90
2022-10-11T19:14:36.596Z,22.73
2022-10-11T19:17:03.333Z,17.38
2022-10-11T19:19:37.360Z,17.92
2022-10-11T19:22:04.359Z,18.10
2022-10-11T19:24:31.895Z,20.05
2022-10-11T19:27:02.649Z,14.25
2022-10-11T19:29:30.585Z,18.00
2022-10-11T19:32:01.860Z,14.55
2022-10-11T19:34:31.338Z,19.70
2022-10-11T19:37:05.976Z,19.83
2022-10-11T19:39:35.454Z,19.70
2022-10-11T19:42:02.496Z,15.85
2022-10-11T19:44:29.166Z,18.13
2022-10-11T19:47:01.415Z,18.02
2022-10-11T19:49:31.235Z,20.30
2022-10-11T19:51:57.970Z,15.75
2022-10-11T19:54:28.995Z,18.38
2022-10-11T19:57:00.942Z,19.65
2022-10-11T19:59:32.889Z,18.13
2022-10-11T20:02:01.858Z,19.20
2022-10-11T20:07:15.186Z,17.02
2022-10-11T20:09:44.163Z,18.77
2022-10-11T20:12:10.915Z,20.05
2022-10-11T20:14:40.099Z,24.08
2022-10-11T20:17:06.890Z,20.80
2022-10-11T20:19:33.631Z,26.30
2022-10-11T20:22:01.451Z,20.98
2022-10-11T20:24:32.678Z,23.70
2022-10-11T20:27:05.913Z,23.75
2022-10-11T20:29:32.786Z,22.45
2022-10-11T20:31:59.718Z,20.27
2022-10-11T20:34:29.164Z,19.10
2022-10-11T20:36:58.195Z,18.80
2022-10-11T20:39:27.412Z,19.67
2022-10-11T20:41:54.126Z,19.10
2022-10-11T20:44:20.878Z,22.45
2022-10-11T20:46:47.649Z,18.20
2022-10-11T20:49:14.678Z,22.48
2022-10-11T20:51:43.820Z,20.70
2022-10-11T20:54:11.159Z,19.38
2022-10-11T20:56:38.541Z,19.88
2022-10-11T20:59:06.656Z,21.15
2022-10-11T21:01:39.630Z,17.58
2022-10-11T21:04:17.385Z,24.60
2022-10-11T21:06:44.173Z,14.55
2022-10-11T21:09:15.653Z,18.58
2022-10-11T21:11:43.527Z,22.23
2022-10-11T21:14:10.275Z,17.33
2022-10-11T21:16:36.996Z,19.92
2022-10-11T21:19:04.045Z,15.70
2022-10-11T21:21:31.268Z,15.90
2022-10-11T21:24:05.762Z,18.13
2022-10-11T21:26:38.565Z,16.70
2022-10-11T21:29:05.384Z,15.13
2022-10-11T21:31:35.054Z,15.18
2022-10-11T21:34:02.393Z,19.60
2022-10-11T21:36:29.119Z,17.10
2022-10-11T21:38:56.519Z,17.38
2022-10-11T21:41:25.580Z,15.82
2022-10-11T21:43:53.152Z,14.35
2022-10-11T21:46:21.418Z,18.45
2022-10-11T21:48:50.080Z,16.38
2022-10-11T21:51:22.780Z,17.80
2022-10-11T21:53:51.286Z,18.88
2022-10-11T21:56:18.729Z,14.68
2022-10-11T21:58:49.229Z,15.25
2022-10-11T22:01:19.840Z,17.70
2022-10-11T22:03:46.797Z,15.73
2022-10-11T22:06:14.737Z,14.60
2022-10-11T22:08:41.806Z,16.02
2022-10-11T22:11:09.518Z,19.20
2022-10-11T22:13:36.472Z,21.17
2022-10-11T22:16:38.514Z,17.75
2022-10-11T22:19:05.508Z,16.92
2022-10-11T22:21:56.688Z,17.67
2022-10-11T22:24:27.287Z,14.93
2022-10-11T22:26:59.371Z,18.38
2022-10-11T22:29:50.379Z,15.50
2022-10-11T22:32:17.280Z,18.10
2022-10-11T22:34:44.451Z,18.90
2022-10-11T22:37:11.717Z,15.75
2022-10-11T22:58:35.735Z,15.27
2022-10-11T23:01:11.880Z,16.95
2022-10-11T23:04:31.919Z,18.83
2022-10-11T23:07:02.603Z,16.88
2022-10-11T23:09:31.893Z,15.43
2022-10-11T23:11:59.766Z,17.90
2022-10-11T23:14:26.637Z,19.33
2022-10-11T23:16:53.407Z,17.27
2022-10-11T23:19:20.283Z,13.18
2022-10-11T23:21:47.044Z,16.13
2022-10-11T23:24:14.105Z,16.35
2022-10-11T23:26:40.873Z,12.90
2022-10-11T23:29:07.871Z,14.13
2022-10-11T23:31:37.242Z,13.20
2022-10-11T23:34:05.634Z,15.75
2022-10-11T23:36:51.419Z,13.48
2022-10-11T23:39:18.534Z,14.20
2022-10-11T23:41:51.806Z,14.32
2022-10-11T23:44:21.364Z,15.27
2022-10-11T23:47:05.241Z,12.77
2022-10-11T23:49:36.450Z,14.00
2022-10-11T23:52:03.244Z,15.25
2022-10-11T23:55:33.329Z,13.85
2022-10-11T23:58:00.263Z,16.92
